Terminal Aerodrome Forecast
Issued by NWS

Home | Current Version | Previous Version | Text Only | Print | Product List | Glossary On
Versions: 1 2 3 4 5 6 7 8 9 10 11 12 13 14 15 16 17 18 19 20
000
FTUS43 KAPX 252325
TAFPLN
TAF
KPLN 252325Z 2600/2624 00000KT P6SM FEW250
     FM260600 20006KT P6SM BKN200 WS020/22035KT
     FM260900 20009KT P6SM VCSH BKN100 WS020/22035KT
     FM261300 20011KT P6SM -SHRA OVC060
     FM261700 22013G21KT 6SM -SHRA OVC030=

USA.gov is the U.S. government's official web portal to all federal, state and local government web resources and services.